Aultbea, United Kingdom
Current Conditions -  °F | °C
As of 11:20 AM on Wednesday 26 Nov 2014 (Local Time) from EGPO Reporting Station
Rain Showers Rain Showers  
Wind Chill: 41°   Ceiling: Unl
Heat Index: 48°   Visibility: 6mi
Dew Point: 43°   Wind: 20mph
Humidity: 82%   Direction: 200°SSW
Pressure: 29.88"   Gusts: NA
Location:  57.87°N, 5.63°W
Report Text: EGPO 261120Z 20017KT 9999 -SHRA FEW008 SCT018 09/06 Q1012
Loading
Personal Weather Stations






























Interactive Weather Map New forecast layout! Learn more

10-Day Weather Forecast

Advertisements
Track Severe Weather on mobile